MOL Partner — 3EBZ5 — position and weather

sailwx.info

Track history (hours):
 
Tides and Currents Weather Stations Pressure Air Temp Water Temp Dewpoint Dewpoint Depression Visibility Wind Speed Wind Dir Waves Ship Positions

MOL Partner

Last reported at 2014-Jul-25 19:28 UTC. Time now 2014-Jul-26 01:10 UTC.
Position N 36°54' W 076°20'.

Length 293 m; draft 12.3 m.

Type: Ship (hazmat cat D). MMSI: 371303000.

Date/timePositionNaut miles runAvg speedWind from/ knotsBaromVisibWave heightAir tempDewpointWater temp
2014-Jul-25 19:28N 36°54' W 076°20'0 0.0
2014-Jul-25 14:22N 36°54' W 076°20'0 0.0
2014-Jul-25 12:04N 36°54' W 076°20'0 0.0
2014-Jul-25 11:16N 36°54' W 076°20'0 0.0
2014-Jul-25 10:31N 36°54' W 076°20'2 2.3
2014-Jul-25 09:33N 36°57' W 076°20'1211.4
2014-Jul-25 08:31N 36°58' W 076°06'1111.3
2014-Jul-25 07:33N 36°54' W 075°53'27215.6
2014-Jul-24 14:12N 37°53' W 070°20'  
2014-Jul-20 00:26N 40°49' W 030°02'1517.4
2014-Jul-19 23:33N 40°46' W 029°42'3917.9
2014-Jul-19 21:23N 40°38' W 028°52'3917.3
2014-Jul-19 19:08N 40°30' W 028°02'4517.3
2014-Jul-19 16:32N 40°21' W 027°04'1917.5
2014-Jul-19 15:26N 40°17' W 026°39'15417.3
2014-Jul-19 06:32N 39°45' W 023°23'1717.3
2014-Jul-19 05:33N 39°42' W 023°01'56517.4
2014-Jul-17 21:04N 37°00' W 011°31'1120.6
2014-Jul-17 20:33N 36°57' W 011°19'1818.5
2014-Jul-17 19:33N 36°51' W 010°57'1817.5
2014-Jul-17 18:33N 36°46' W 010°36'1717.5
2014-Jul-17 17:34N 36°40' W 010°15'1817.4
2014-Jul-17 16:33N 36°34' W 009°55'1817.7
2014-Jul-17 15:32N 36°26' W 009°35'1717.5
2014-Jul-17 14:33N 36°20' W 009°15'1817.4
2014-Jul-17 13:31N 36°14' W 008°54'1717.5
2014-Jul-17 12:33N 36°09' W 008°34'33217.5
2014-Jul-16 17:33N 36°27' W 001°43'1818.2
2014-Jul-16 16:33N 36°28' W 001°20'1918.1
2014-Jul-16 15:30N 36°30' W 000°57'3817.5
2014-Jul-16 13:21N 36°34' W 000°10'1517.1
2014-Jul-16 12:28N 36°37' E 000°08'2317.4
2014-Jul-16 11:08N 36°40' E 000°37'1017.9
2014-Jul-16 10:33N 36°41' E 000°50'1817.6
2014-Jul-16 09:33N 36°44' E 001°11'1919.3
2014-Jul-16 08:33N 36°49' E 001°35'1918.8
2014-Jul-16 07:33N 36°53' E 001°58'1616.4
2014-Jul-16 06:34N 36°56' E 002°18'1716.4
2014-Jul-16 05:33N 36°59' E 002°38'1716.8
2014-Jul-16 04:34N 37°02' E 002°59'1717.1
2014-Jul-16 03:33N 37°05' E 003°20'1717.2
2014-Jul-16 02:33N 37°08' E 003°41'1717.3
2014-Jul-16 01:33N 37°12' E 004°02'1817.7
2014-Jul-16 00:34N 37°15' E 004°24'1817.7
2014-Jul-15 23:33N 37°18' E 004°46'1918.0
2014-Jul-15 22:29N 37°21' E 005°10'1617.8
2014-Jul-15 21:33N 37°24' E 005°30'2319.0
2014-Jul-15 20:19N 37°29' E 005°59'1517.4
2014-Jul-15 19:29N 37°33' E 006°17'  
Track history (hours):
 
Tides and Currents Weather Stations Pressure Air Temp Water Temp Dewpoint Dewpoint Depression Visibility Wind Speed Wind Dir Waves Ship Positions

MOL Partner

Last reported at 2014-Jul-25 19:28 UTC. Time now 2014-Jul-26 01:10 UTC.
Position N 36°54' W 076°20'.

Length 293 m; draft 12.3 m.

Type: Ship (hazmat cat D). MMSI: 371303000.

Date/timePositionNaut miles runAvg speedWind from/ knotsBaromVisibWave heightAir tempDewpointWater temp
2014-Jul-25 19:28N 36°54' W 076°20'0 0.0
2014-Jul-25 14:22N 36°54' W 076°20'0 0.0
2014-Jul-25 12:04N 36°54' W 076°20'0 0.0
2014-Jul-25 11:16N 36°54' W 076°20'0 0.0
2014-Jul-25 10:31N 36°54' W 076°20'2 2.3
2014-Jul-25 09:33N 36°57' W 076°20'1211.4
2014-Jul-25 08:31N 36°58' W 076°06'1111.3
2014-Jul-25 07:33N 36°54' W 075°53'27215.6
2014-Jul-24 14:12N 37°53' W 070°20'  
2014-Jul-20 00:26N 40°49' W 030°02'1517.4
2014-Jul-19 23:33N 40°46' W 029°42'3917.9
2014-Jul-19 21:23N 40°38' W 028°52'3917.3
2014-Jul-19 19:08N 40°30' W 028°02'4517.3
2014-Jul-19 16:32N 40°21' W 027°04'1917.5
2014-Jul-19 15:26N 40°17' W 026°39'15417.3
2014-Jul-19 06:32N 39°45' W 023°23'1717.3
2014-Jul-19 05:33N 39°42' W 023°01'56517.4
2014-Jul-17 21:04N 37°00' W 011°31'1120.6
2014-Jul-17 20:33N 36°57' W 011°19'1818.5
2014-Jul-17 19:33N 36°51' W 010°57'1817.5
2014-Jul-17 18:33N 36°46' W 010°36'1717.5
2014-Jul-17 17:34N 36°40' W 010°15'1817.4
2014-Jul-17 16:33N 36°34' W 009°55'1817.7
2014-Jul-17 15:32N 36°26' W 009°35'1717.5
2014-Jul-17 14:33N 36°20' W 009°15'1817.4
2014-Jul-17 13:31N 36°14' W 008°54'1717.5
2014-Jul-17 12:33N 36°09' W 008°34'33217.5
2014-Jul-16 17:33N 36°27' W 001°43'1818.2
2014-Jul-16 16:33N 36°28' W 001°20'1918.1
2014-Jul-16 15:30N 36°30' W 000°57'3817.5
2014-Jul-16 13:21N 36°34' W 000°10'1517.1
2014-Jul-16 12:28N 36°37' E 000°08'2317.4
2014-Jul-16 11:08N 36°40' E 000°37'1017.9
2014-Jul-16 10:33N 36°41' E 000°50'1817.6
2014-Jul-16 09:33N 36°44' E 001°11'1919.3
2014-Jul-16 08:33N 36°49' E 001°35'1918.8
2014-Jul-16 07:33N 36°53' E 001°58'1616.4
2014-Jul-16 06:34N 36°56' E 002°18'1716.4
2014-Jul-16 05:33N 36°59' E 002°38'1716.8
2014-Jul-16 04:34N 37°02' E 002°59'1717.1
2014-Jul-16 03:33N 37°05' E 003°20'1717.2
2014-Jul-16 02:33N 37°08' E 003°41'1717.3
2014-Jul-16 01:33N 37°12' E 004°02'1817.7
2014-Jul-16 00:34N 37°15' E 004°24'1817.7
2014-Jul-15 23:33N 37°18' E 004°46'1918.0
2014-Jul-15 22:29N 37°21' E 005°10'1617.8
2014-Jul-15 21:33N 37°24' E 005°30'2319.0
2014-Jul-15 20:19N 37°29' E 005°59'1517.4
2014-Jul-15 19:29N 37°33' E 006°17'  

Dump ship's entire track history